Krisjanis Valdemars — V7LI9 — position and weather

sailwx.info

Track history (hours):
 
Tides and Currents Weather Stations Pressure Air Temp Water Temp Dewpoint Dewpoint Depression Visibility Wind Speed Wind Dir Waves Ship Positions

Krisjanis Valdemars

Last reported at 2014-Sep-01 16:31 UTC. Time now 2014-Sep-03 04:54 UTC.
Position N 32°02' W 016°31'.

Length 183 m; draft 10.5 m.

Type: Tanker. MMSI: 538002757.

Date/timePositionNaut miles runAvg speedWind from/ knotsBaromVisibWave heightAir tempDewpointWater temp
2014-Sep-01 16:31N 32°02' W 016°31'1313.4
2014-Sep-01 15:33N 32°14' W 016°24'  
2014-Aug-28 10:29N 50°16' W 001°23'30 9.9
2014-Aug-28 07:27N 50°24' W 000°37'2513.4
2014-Aug-28 05:33N 50°31' E 000°01'1514.6
2014-Aug-28 04:33N 50°35' E 000°23'1413.8
2014-Aug-28 03:33N 50°41' E 000°42'1313.0
2014-Aug-28 02:33N 50°49' E 000°59'1711.4
2014-Aug-28 01:06N 50°60' E 001°19'610.2
2014-Aug-28 00:33N 51°03' E 001°26'1111.3
2014-Aug-27 23:34N 51°10' E 001°40'1313.2
2014-Aug-27 22:33N 51°21' E 001°52'1515.2
2014-Aug-27 21:34N 51°33' E 002°07'1815.3
2014-Aug-27 20:24N 51°46' E 002°26'1314.6
2014-Aug-27 19:33N 51°56' E 002°39'2713.1
2014-Aug-27 17:31N 52°03' E 003°21'1313.2
2014-Aug-27 16:31N 52°03' E 003°42'1010.3
2014-Aug-27 15:34N 52°02' E 003°58'1010.3
2014-Aug-27 14:33N 51°56' E 004°12'1 1.0
2014-Aug-27 13:33N 51°55' E 004°12'0 0.0
2014-Aug-27 11:27N 51°55' E 004°12'  
2014-Aug-24 14:33N 51°55' E 004°12'4 4.1
2014-Aug-24 13:33N 51°58' E 004°08'1010.4
2014-Aug-24 12:33N 52°01' E 003°51'7 6.5
2014-Aug-24 11:33N 51°58' E 003°41'38210.9
2014-Aug-23 00:27N 57°29' E 009°10'1112.5
2014-Aug-22 23:33N 57°35' E 009°29'2613.0
2014-Aug-22 21:32N 57°46' E 010°13'1313.3
2014-Aug-22 20:33N 57°48' E 010°37'1212.3
2014-Aug-22 19:33N 57°42' E 010°58'1313.4
2014-Aug-22 18:33N 57°33' E 011°16'1313.2
2014-Aug-22 17:34N 57°22' E 011°30'1313.2
2014-Aug-22 16:34N 57°10' E 011°38'  
Track history (hours):
 
Tides and Currents Weather Stations Pressure Air Temp Water Temp Dewpoint Dewpoint Depression Visibility Wind Speed Wind Dir Waves Ship Positions

Krisjanis Valdemars

Last reported at 2014-Sep-01 16:31 UTC. Time now 2014-Sep-03 04:54 UTC.
Position N 32°02' W 016°31'.

Length 183 m; draft 10.5 m.

Type: Tanker. MMSI: 538002757.

Date/timePositionNaut miles runAvg speedWind from/ knotsBaromVisibWave heightAir tempDewpointWater temp
2014-Sep-01 16:31N 32°02' W 016°31'1313.4
2014-Sep-01 15:33N 32°14' W 016°24'  
2014-Aug-28 10:29N 50°16' W 001°23'30 9.9
2014-Aug-28 07:27N 50°24' W 000°37'2513.4
2014-Aug-28 05:33N 50°31' E 000°01'1514.6
2014-Aug-28 04:33N 50°35' E 000°23'1413.8
2014-Aug-28 03:33N 50°41' E 000°42'1313.0
2014-Aug-28 02:33N 50°49' E 000°59'1711.4
2014-Aug-28 01:06N 50°60' E 001°19'610.2
2014-Aug-28 00:33N 51°03' E 001°26'1111.3
2014-Aug-27 23:34N 51°10' E 001°40'1313.2
2014-Aug-27 22:33N 51°21' E 001°52'1515.2
2014-Aug-27 21:34N 51°33' E 002°07'1815.3
2014-Aug-27 20:24N 51°46' E 002°26'1314.6
2014-Aug-27 19:33N 51°56' E 002°39'2713.1
2014-Aug-27 17:31N 52°03' E 003°21'1313.2
2014-Aug-27 16:31N 52°03' E 003°42'1010.3
2014-Aug-27 15:34N 52°02' E 003°58'1010.3
2014-Aug-27 14:33N 51°56' E 004°12'1 1.0
2014-Aug-27 13:33N 51°55' E 004°12'0 0.0
2014-Aug-27 11:27N 51°55' E 004°12'  
2014-Aug-24 14:33N 51°55' E 004°12'4 4.1
2014-Aug-24 13:33N 51°58' E 004°08'1010.4
2014-Aug-24 12:33N 52°01' E 003°51'7 6.5
2014-Aug-24 11:33N 51°58' E 003°41'38210.9
2014-Aug-23 00:27N 57°29' E 009°10'1112.5
2014-Aug-22 23:33N 57°35' E 009°29'2613.0
2014-Aug-22 21:32N 57°46' E 010°13'1313.3
2014-Aug-22 20:33N 57°48' E 010°37'1212.3
2014-Aug-22 19:33N 57°42' E 010°58'1313.4
2014-Aug-22 18:33N 57°33' E 011°16'1313.2
2014-Aug-22 17:34N 57°22' E 011°30'1313.2
2014-Aug-22 16:34N 57°10' E 011°38'  

Dump ship's entire track history